Terminal Aerodrome Forecast
Issued by NWS

Home | Current Version | Previous Version | Text Only | Print | Product List | Glossary Off
Versions: 1 2 3 4 5 6 7 8 9 10 11 12 13 14 15 16

000
FTUS43 KGRB 081720
TAFCWA
TAF
KCWA 081720Z 0818/0918 30012G16KT P6SM SCT015 BKN025
      TEMPO 0818/0822 5SM -SHSN BKN015
     FM082200 31011G19KT 6SM -SHSN BKN018 OVC030
     FM090000 30008KT P6SM -SHSN FEW016 BKN030
     FM091400 30007KT P6SM BKN020=

USA.gov is the U.S. government's official web portal to all federal, state and local government web resources and services.